Nearby METAR Reports

 

K1A5 - Macon/Franklin, North Carolina, USA
Distance from station: WSW 16mi, 25km
Updated: Wed, 18-Sep-2019 12:55am EDT
Mist, Overcast
Mist, Overcast
 Wind from calm
Wind: Calm
Temperature: 64°F , 18°C
Dew Point: 63°F , 17°C
Humidity: 94%
Barometer: 30.12 inHg , 1020 hPa
Summary: Mist
Clouds: Overcast
Visibility: 5 miles , 8 km
Cloud details: Overcast 6000 ft
2019/09/18 04:55 K1A5 180455Z AUTO 00000KT 5SM BR OVC060 18/17 A3012 RMK AO2 T01760169
KAVL - Asheville, North Carolina, USA
Distance from station: ENE 36mi, 59km
Updated: Wed, 18-Sep-2019 12:54am EDT
Few Clouds
Few Clouds
 Wind from calm
Wind: Calm
Temperature: 73°F , 23°C
Dew Point: 64°F , 18°C
Humidity: 74%
Barometer: 30.11 inHg , 1019.6 hPa
Clouds: Few Clouds
Visibility: 10 miles , 16 km
Cloud details: Few Clouds 4800 ft
2019/09/18 04:54 KAVL 180454Z AUTO 00000KT 10SM FEW048 23/18 A3011 RMK AO2 SLP163 T02330178 403220172
 
KRHP - Andrews, North Carolina, USA
Distance from station: WSW 40mi, 64km
Updated: Wed, 18-Sep-2019 12:55am EDT
Clear
Clear
 Wind from calm
Wind: Calm
Temperature: 63°F , 17°C
Dew Point: 63°F , 17°C
Humidity: 100%
Barometer: 30.06 inHg , 1017.9 hPa
Clouds: Clear
Visibility: 10 miles , 16 km
2019/09/18 04:55 KRHP 180455Z AUTO 00000KT 10SM CLR 17/17 A3006 RMK AO2 T01720172
KLQK - Pickens, South Carolina, USA
Distance from station: SE 42mi, 68km
Updated: Wed, 18-Sep-2019 1:15am EDT
Overcast
Overcast
 Wind from E
Wind: E 3 mph , 6 km/h
Temperature: 77°F , 25°C
Dew Point: 70°F , 21°C
Humidity: 79%
Barometer: 30.02 inHg , 1016.6 hPa
Clouds: Overcast
Visibility: 10 miles , 16 km
Cloud details: Mostly cloudy 6000 ft
Mostly cloudy 8000 ft
Overcast 10000 ft
2019/09/18 05:15 KLQK 180515Z AUTO 08003KT 10SM BKN060 BKN080 OVC100 25/21 A3002 RMK AO2 T02500213
 
KCEU - Clemson, South Carolina, USA
Distance from station: SSE 46mi, 75km
Updated: Wed, 18-Sep-2019 12:54am EDT
Mostly cloudy
Mostly cloudy
 Wind from NE
Wind: NE 8 mph , 13 km/h
Temperature: 79°F , 26°C
Dew Point: 70°F , 21°C
Humidity: 74%
Barometer: 30.02 inHg , 1016.6 hPa
Clouds: Mostly cloudy
Visibility: 10 miles , 16 km
Cloud details: Mostly cloudy 7000 ft
2019/09/18 04:54 KCEU 180454Z AUTO 05007KT 10SM BKN070 26/21 A3002 RMK AO2 SLP151 T02560206 403440217
KTOC - Toccoa, Georgia, USA
Distance from station: S 49mi, 79km
Updated: Wed, 18-Sep-2019 12:55am EDT
Clear
Clear
 Wind from NNE
Wind: NNE 3 mph , 6 km/h
Temperature: 75°F , 24°C
Dew Point: 68°F , 20°C
Humidity: 78%
Barometer: 30.00 inHg , 1015.9 hPa
Clouds: Clear
Visibility: 10 miles , 16 km
2019/09/18 04:55 KTOC 180455Z AUTO 02003KT 10SM CLR 24/20 A3000 RMK AO2 T02410204